Terminal Aerodrome Forecast
Issued by NWS Springfield, MO

Home | Current Version | Previous Version | Text Only | Print | Product List | Glossary On
Versions: 1 2 3 4 5 6 7 8 9 10 11 12 13 14 15
000
FTUS43 KSGF 221700
TAFSGF
TAF
KSGF 221730Z 2218/2318 23007KT P6SM SCT035
     FM230600 22004KT P6SM OVC250 PROB30 2307/2311 3SM TSRA BKN050CB
     FM231200 01006KT P6SM SCT050 OVC150=

USA.gov is the U.S. government's official web portal to all federal, state and local government web resources and services.